This is the latest recevied weather packets stored in our database for station/object W5CRT. If no packets are shown the sender has not sent any weather packets the latest 10 day(s).
| Time | Temp. | Humidity | Pressure | Rain* | Wind** | Luminosity | Snow |
|---|---|---|---|---|---|---|---|
| 1777479691 | 16.11° C | 85% | 1013.5 hPa | 0 mm | - | 424 W/m² | - |
| 1777479389 | 16.11° C | 85% | 1014.1 hPa | 0 mm | - | 232 W/m² | - |
| 1777479084 | 15.56° C | 87% | 1013.9 hPa | 0 mm | - | 315 W/m² | - |
| 1777478781 | 15.56° C | 89% | 1013.3 hPa | 0 mm | - | 664 W/m² | - |
| 1777478478 | 15° C | 88% | 1013.9 hPa | 1.78 mm | - | 65 W/m² | - |
| 1777478175 | 15.56° C | 87% | 1013.3 hPa | 5.33 mm | - | 192 W/m² | - |
| 1777477871 | 15.56° C | 84% | 1013.2 hPa | 1.78 mm | - | 178 W/m² | - |
| 1777477566 | 15.56° C | 81% | 1014.3 hPa | 0 mm | - | 27 W/m² | - |
| 1777477263 | 15.56° C | 82% | 1013.9 hPa | 0 mm | - | 32 W/m² | - |
| 1777476960 | 15.56° C | 81% | 1013.8 hPa | 0 mm | - | 38 W/m² | - |
| 1777476658 | 15.56° C | 82% | 1013.7 hPa | 0 mm | - | 80 W/m² | - |
| 1777476354 | 15.56° C | 81% | 1013.8 hPa | 0 mm | - | 60 W/m² | - |
| 1777476050 | 15.56° C | 81% | 1013.7 hPa | 0 mm | - | 74 W/m² | - |
| 1777475746 | 15.56° C | 81% | 1013.9 hPa | 0 mm | - | 58 W/m² | - |
| 1777475443 | 15.56° C | 81% | 1014 hPa | 0 mm | - | 51 W/m² | - |
| 1777475138 | 15.56° C | 81% | 1013.3 hPa | 0 mm | - | 55 W/m² | - |
| 1777474835 | 15.56° C | 81% | 1013.6 hPa | 0 mm | - | 67 W/m² | - |
| 1777474530 | 15.56° C | 81% | 1013.3 hPa | 0 mm | - | 68 W/m² | - |
| 1777474227 | 15.56° C | 81% | 1013.4 hPa | 0 mm | - | 64 W/m² | - |
| 1777473925 | 15.56° C | 81% | 1013.3 hPa | 0 mm | - | 100 W/m² | - |
| 1777473622 | 15.56° C | 81% | 1013.4 hPa | 0 mm | - | 66 W/m² | - |
| 1777473318 | 15.56° C | 81% | 1013.2 hPa | 0 mm | - | 99 W/m² | - |
| 1777473014 | 15.56° C | 81% | 1013.1 hPa | 0 mm | - | 101 W/m² | - |
| 1777472710 | 15.56° C | 81% | 1013.2 hPa | 0 mm | - | 87 W/m² | - |
| 1777472407 | 15.56° C | 81% | 1013.3 hPa | 0 mm | - | 67 W/m² | - |
* Rain latest hour (hover to see other rain measurements)
** Current wind speed in m/s (hover to see current wind gust speed)